Nisland, South Dakota
Current Conditions -  °F | °C
As of 7:15 AM on Sunday 21 Dec 2014 (Local Time) from KSPF Reporting Station
Clear Clear  
Wind Chill: 27°   Ceiling: Unl
Heat Index: 32°   Visibility: 10mi
Dew Point: 19°   Wind: 5mph
Humidity: 60%   Direction: 50°NE
Pressure: 29.5"   Gusts: NA
Location:  44.67°N, 103.55°W
Report Text: KSPF 211415Z AUTO 05004KT 10SM CLR 00/M07 A2950 RMK AO2
Loading
Personal Weather Stations






























Interactive Weather Map New forecast layout! Learn more

10-Day Weather Forecast

Advertisements
Track Severe Weather on mobile